createdAt,value
2023-01-30T00:02:27.741Z,101166.13
2023-01-30T00:04:57.625Z,101148.78
2023-01-30T00:07:27.423Z,101135.63
2023-01-30T00:09:59.981Z,101125.25
2023-01-30T00:12:29.731Z,101126.13
2023-01-30T00:14:59.526Z,101139.38
2023-01-30T00:17:29.428Z,101121.00
2023-01-30T00:19:59.269Z,101123.59
2023-01-30T00:22:29.400Z,101123.50
2023-01-30T00:25:01.943Z,101124.34
2023-01-30T00:27:32.716Z,101117.31
2023-01-30T00:30:04.613Z,101108.50
2023-01-30T00:32:34.567Z,101110.94
2023-01-30T00:35:04.446Z,101106.53
2023-01-30T00:37:34.330Z,101104.66
2023-01-30T00:40:07.339Z,101110.78
2023-01-30T00:42:49.518Z,101093.22
2023-01-30T00:45:31.902Z,101082.69
2023-01-30T00:48:03.112Z,101091.28
2023-01-30T00:50:42.747Z,101098.22
2023-01-30T00:53:13.474Z,101074.59
2023-01-30T00:55:46.209Z,101083.44
2023-01-30T00:58:16.906Z,101077.28
2023-01-30T01:00:46.784Z,101068.47
2023-01-30T01:03:16.907Z,101056.19
2023-01-30T01:05:47.396Z,101062.28
2023-01-30T01:08:17.666Z,101054.41
2023-01-30T01:10:50.091Z,101050.00
2023-01-30T01:13:19.881Z,101047.47
2023-01-30T01:15:49.713Z,101055.31
2023-01-30T01:18:19.715Z,101043.22
2023-01-30T01:20:49.519Z,101044.09
2023-01-30T01:23:19.330Z,101050.22
2023-01-30T01:25:51.710Z,101041.56
2023-01-30T01:28:22.383Z,101045.88
2023-01-30T01:30:52.283Z,101046.88
2023-01-30T01:33:22.119Z,101033.78
2023-01-30T01:35:51.994Z,101036.34
2023-01-30T01:38:21.750Z,101030.28
2023-01-30T01:41:03.628Z,101047.84
2023-01-30T01:43:36.441Z,101038.38
2023-01-30T01:46:12.978Z,101030.56
2023-01-30T01:48:47.818Z,101028.88
2023-01-30T01:51:22.111Z,101032.28
2023-01-30T01:53:57.602Z,101020.09
2023-01-30T01:56:30.961Z,101032.28
2023-01-30T01:59:06.296Z,101025.41
2023-01-30T02:01:36.643Z,101015.84
2023-01-30T02:04:10.071Z,101018.56
2023-01-30T02:06:40.878Z,101030.81
2023-01-30T02:09:13.091Z,101035.22
2023-01-30T02:11:50.722Z,101040.59
2023-01-30T02:14:22.501Z,101025.72
2023-01-30T02:16:52.263Z,101017.94
2023-01-30T02:19:28.858Z,101026.03
2023-01-30T02:22:20.618Z,101005.97
2023-01-30T02:25:21.316Z,101013.91
2023-01-30T02:28:21.857Z,101017.44
2023-01-30T02:31:18.733Z,101005.22
2023-01-30T02:34:00.373Z,101008.81
2023-01-30T02:36:41.432Z,101007.19
2023-01-30T02:39:22.338Z,100998.63
2023-01-30T02:42:03.587Z,100982.13
2023-01-30T02:44:40.462Z,100996.09
2023-01-30T02:47:17.670Z,100997.84
2023-01-30T02:49:52.808Z,100994.38
2023-01-30T02:52:24.281Z,100998.72
2023-01-30T02:54:54.074Z,100986.53
2023-01-30T02:57:25.729Z,100978.63
2023-01-30T02:59:59.402Z,100985.56
2023-01-30T03:02:53.009Z,100984.59
2023-01-30T03:05:40.309Z,100977.56
2023-01-30T03:08:20.399Z,100978.31
2023-01-30T03:10:58.290Z,100967.78
2023-01-30T03:13:38.886Z,100970.31
2023-01-30T03:16:12.706Z,100983.25
2023-01-30T03:18:47.740Z,100984.97
2023-01-30T03:21:17.664Z,100983.03
2023-01-30T03:23:49.140Z,100989.81
2023-01-30T03:26:22.840Z,100993.19
2023-01-30T03:28:53.969Z,100987.00
2023-01-30T03:31:23.920Z,101007.94
2023-01-30T03:33:56.495Z,100996.50
2023-01-30T03:36:26.924Z,100997.25
2023-01-30T03:38:56.823Z,100999.78
2023-01-30T03:41:27.081Z,101019.91
2023-01-30T03:43:56.947Z,101006.72
2023-01-30T03:46:26.941Z,101014.50
2023-01-30T03:48:59.451Z,101017.94
2023-01-30T03:51:29.224Z,101014.34
2023-01-30T03:53:59.010Z,101015.97
2023-01-30T03:56:28.814Z,101015.03
2023-01-30T03:58:58.590Z,101005.22
2023-01-30T04:01:28.443Z,101023.44
2023-01-30T04:04:00.927Z,101021.53
2023-01-30T04:06:30.695Z,101015.22
2023-01-30T04:09:00.474Z,101016.78
2023-01-30T04:11:30.216Z,101018.50
2023-01-30T04:14:00.111Z,101002.66
2023-01-30T04:16:30.672Z,101015.72
2023-01-30T04:19:03.079Z,101006.84
2023-01-30T04:21:32.847Z,101009.34
2023-01-30T04:24:02.658Z,101010.09
2023-01-30T04:26:32.555Z,101011.03
2023-01-30T04:29:02.483Z,101009.22
2023-01-30T04:31:32.427Z,101003.75
2023-01-30T04:34:04.870Z,101012.50
2023-01-30T04:36:34.654Z,101007.19
2023-01-30T04:39:04.437Z,101014.19
2023-01-30T04:41:34.313Z,101014.19
2023-01-30T04:44:04.174Z,101007.19
2023-01-30T04:46:34.011Z,101015.91
2023-01-30T04:49:06.481Z,101029.72
2023-01-30T04:51:36.298Z,101003.44
2023-01-30T04:54:06.721Z,101011.28
2023-01-30T04:56:36.723Z,101012.09
2023-01-30T04:59:06.737Z,101014.53
2023-01-30T05:01:38.522Z,101025.09
2023-01-30T05:04:11.588Z,101017.25
2023-01-30T05:06:41.544Z,101017.25
2023-01-30T05:09:11.349Z,101018.88
2023-01-30T05:11:41.227Z,101016.28
2023-01-30T05:14:11.039Z,101021.41
2023-01-30T05:16:40.783Z,101023.13
2023-01-30T05:19:15.556Z,101028.44
2023-01-30T05:21:45.385Z,101033.59
2023-01-30T05:24:15.178Z,101044.03
2023-01-30T05:26:45.065Z,101044.88
2023-01-30T05:29:14.902Z,101030.97
2023-01-30T05:31:44.770Z,101028.34
2023-01-30T05:34:17.418Z,101023.13
2023-01-30T05:36:47.236Z,101026.56
2023-01-30T05:39:17.232Z,101016.03
2023-01-30T05:41:47.103Z,101026.47
2023-01-30T05:44:17.009Z,101024.69
2023-01-30T05:46:46.889Z,101024.75
2023-01-30T05:49:19.468Z,101034.41
2023-01-30T05:51:51.431Z,101031.06
2023-01-30T05:54:21.426Z,101033.59
2023-01-30T05:56:52.390Z,101032.69
2023-01-30T05:59:23.599Z,101022.16
2023-01-30T06:01:53.641Z,101021.34
2023-01-30T06:04:26.178Z,101014.53
2023-01-30T06:06:55.982Z,101025.16
2023-01-30T06:09:25.786Z,101020.84
2023-01-30T06:11:55.888Z,101023.47
2023-01-30T06:14:25.794Z,101007.84
2023-01-30T06:16:55.787Z,101020.13
2023-01-30T06:19:28.295Z,101023.72
2023-01-30T06:21:58.226Z,101020.03
2023-01-30T06:24:28.202Z,101024.34
2023-01-30T06:26:58.078Z,101025.25
2023-01-30T06:29:27.973Z,101027.94
2023-01-30T06:31:57.730Z,101017.56
2023-01-30T06:34:30.219Z,101019.44
2023-01-30T06:37:00.039Z,101019.44
2023-01-30T06:39:29.927Z,101018.53
2023-01-30T06:41:59.765Z,101022.03
2023-01-30T06:44:29.651Z,101016.00
2023-01-30T06:46:59.494Z,101013.41
2023-01-30T06:49:31.928Z,101015.19
2023-01-30T06:52:01.798Z,101025.63
2023-01-30T06:54:31.606Z,101033.47
2023-01-30T06:57:01.421Z,101036.94
2023-01-30T06:59:31.316Z,101037.81
2023-01-30T07:02:01.186Z,101042.22
2023-01-30T07:04:33.655Z,101036.03
2023-01-30T07:07:06.837Z,101049.13
2023-01-30T07:09:37.100Z,101052.47
2023-01-30T07:12:07.275Z,101048.19
2023-01-30T07:14:37.134Z,101057.91
2023-01-30T07:17:06.938Z,101056.28
2023-01-30T07:19:39.662Z,101060.72
2023-01-30T07:22:09.556Z,101057.16
2023-01-30T07:24:40.037Z,101056.38
2023-01-30T07:27:10.214Z,101056.44
2023-01-30T07:29:40.890Z,101067.81
2023-01-30T07:32:15.001Z,101056.63
2023-01-30T07:34:47.597Z,101060.91
2023-01-30T07:37:17.989Z,101068.84
2023-01-30T07:39:47.768Z,101062.88
2023-01-30T07:42:17.540Z,101056.91
2023-01-30T07:44:47.397Z,101042.09
2023-01-30T07:47:19.522Z,101060.34
2023-01-30T07:49:51.910Z,101059.53
2023-01-30T07:52:21.679Z,101057.00
2023-01-30T07:54:53.044Z,101046.59
2023-01-30T07:57:22.794Z,101057.06
2023-01-30T07:59:52.552Z,101057.16
2023-01-30T08:02:22.307Z,101052.81
2023-01-30T08:04:54.973Z,101059.91
2023-01-30T08:07:24.805Z,101059.03
2023-01-30T08:09:54.604Z,101053.06
2023-01-30T08:12:24.377Z,101074.88
2023-01-30T08:14:54.193Z,101066.13
2023-01-30T08:17:23.994Z,101072.34
2023-01-30T08:19:56.373Z,101076.84
2023-01-30T08:22:26.119Z,101070.75
2023-01-30T08:24:55.879Z,101065.38
2023-01-30T08:27:25.666Z,101061.13
2023-01-30T08:29:55.475Z,101079.50
2023-01-30T08:32:25.259Z,101057.84
2023-01-30T08:34:57.630Z,101056.06
2023-01-30T08:37:27.371Z,101060.53
2023-01-30T08:39:57.131Z,101064.88
2023-01-30T08:42:26.977Z,101041.41
2023-01-30T08:44:56.704Z,101050.22
2023-01-30T08:47:26.617Z,101038.03
2023-01-30T08:49:58.992Z,101050.47
2023-01-30T08:52:28.765Z,101053.00
2023-01-30T08:54:58.523Z,101046.22
2023-01-30T08:57:28.343Z,101059.28
2023-01-30T08:59:58.101Z,101070.56
2023-01-30T09:02:27.896Z,101054.94
2023-01-30T09:05:00.347Z,101054.94
2023-01-30T09:07:30.624Z,101060.28
2023-01-30T09:10:00.408Z,101062.06
2023-01-30T09:12:30.229Z,101058.59
2023-01-30T09:15:00.764Z,101051.72
2023-01-30T09:17:30.547Z,101064.91
2023-01-30T09:20:02.915Z,101071.91
2023-01-30T09:22:32.695Z,101056.22
2023-01-30T09:25:02.494Z,101064.16
2023-01-30T09:27:32.273Z,101074.69
2023-01-30T09:30:02.037Z,101055.56
2023-01-30T09:32:31.779Z,101056.44
2023-01-30T09:35:04.153Z,101059.06
2023-01-30T09:37:34.040Z,101061.91
2023-01-30T09:40:04.575Z,101059.41
2023-01-30T09:42:57.714Z,101059.44
2023-01-30T09:45:50.703Z,101070.81
2023-01-30T09:48:28.701Z,101057.91
2023-01-30T09:51:22.980Z,101059.16
2023-01-30T09:54:10.605Z,101057.44
2023-01-30T09:56:40.377Z,101064.31
2023-01-30T09:59:17.730Z,101086.16
2023-01-30T10:01:54.413Z,101076.66
2023-01-30T10:04:32.371Z,101081.22
2023-01-30T10:07:11.399Z,101076.22
2023-01-30T10:09:49.621Z,101081.75
2023-01-30T10:12:34.155Z,101143.94
2023-01-30T10:15:34.974Z,101112.78
2023-01-30T10:18:38.484Z,101132.50
2023-01-30T10:21:19.356Z,101128.47
2023-01-30T10:24:07.444Z,101128.50
2023-01-30T10:26:37.688Z,101135.78
2023-01-30T10:29:14.081Z,101147.63
2023-01-30T10:31:48.878Z,101151.72
2023-01-30T10:34:23.959Z,101145.34
2023-01-30T10:37:00.750Z,101144.19
2023-01-30T10:39:49.703Z,101138.97
2023-01-30T10:42:30.734Z,101162.09
2023-01-30T10:45:09.972Z,101150.09
2023-01-30T10:48:05.442Z,101156.38
2023-01-30T10:50:46.883Z,101147.88
2023-01-30T10:53:24.267Z,101169.06
2023-01-30T10:56:06.472Z,101141.44
2023-01-30T10:58:43.247Z,101145.97
2023-01-30T11:01:20.422Z,101145.34
2023-01-30T11:03:56.013Z,101153.69
2023-01-30T11:06:27.291Z,101153.97
2023-01-30T11:08:58.510Z,101161.34
2023-01-30T11:11:34.101Z,101159.84
2023-01-30T11:14:08.711Z,101176.00
2023-01-30T11:16:47.332Z,101173.63
2023-01-30T11:19:21.636Z,101183.59
2023-01-30T11:21:53.798Z,101177.78
2023-01-30T11:24:31.463Z,101186.69
2023-01-30T11:27:13.042Z,101191.34
2023-01-30T11:29:43.124Z,101218.50
2023-01-30T11:32:17.751Z,101215.13
2023-01-30T11:34:47.734Z,101217.16
2023-01-30T11:37:29.658Z,101229.44
2023-01-30T11:39:59.656Z,101240.13
2023-01-30T11:42:34.512Z,101236.63
2023-01-30T11:45:17.214Z,101253.22
2023-01-30T11:47:57.850Z,101248.09
2023-01-30T11:50:36.282Z,101258.25
2023-01-30T11:53:19.737Z,101259.91
2023-01-30T11:56:02.539Z,101262.50
2023-01-30T11:58:38.338Z,101260.88
2023-01-30T12:01:10.748Z,101265.44
2023-01-30T12:03:50.221Z,101267.56
2023-01-30T12:06:28.470Z,101273.19
2023-01-30T12:08:58.477Z,101274.06
2023-01-30T12:11:31.895Z,101268.19
2023-01-30T12:14:30.040Z,101267.56
2023-01-30T12:17:07.759Z,101266.81
2023-01-30T12:19:49.600Z,101281.81
2023-01-30T12:22:34.962Z,101276.56
2023-01-30T12:25:12.269Z,101273.06
2023-01-30T12:30:42.444Z,101281.06
2023-01-30T12:35:59.346Z,101275.81
2023-01-30T12:38:42.408Z,101286.31
2023-01-30T12:41:27.187Z,101283.78
2023-01-30T12:44:10.391Z,101278.53
2023-01-30T12:46:58.282Z,101303.84
2023-01-30T12:49:39.023Z,101294.09
2023-01-30T12:52:31.976Z,101280.91
2023-01-30T12:55:10.820Z,101310.47
2023-01-30T12:57:47.240Z,101305.16
2023-01-30T13:00:35.408Z,101306.97
2023-01-30T13:03:22.608Z,101316.38
2023-01-30T13:05:58.566Z,101314.50
2023-01-30T13:08:42.838Z,101317.13
2023-01-30T13:11:29.164Z,101323.19
2023-01-30T13:14:07.880Z,101324.19
2023-01-30T13:16:48.985Z,101322.69
2023-01-30T13:19:31.162Z,101334.16
2023-01-30T13:22:15.961Z,101334.22
2023-01-30T13:24:58.896Z,101314.97
2023-01-30T13:27:32.378Z,101343.81
2023-01-30T13:30:11.997Z,101349.88
2023-01-30T13:32:46.386Z,101349.78
2023-01-30T13:35:23.995Z,101361.16
2023-01-30T13:37:55.228Z,101351.41
2023-01-30T13:40:29.021Z,101359.19
2023-01-30T13:43:03.563Z,101362.50
2023-01-30T13:45:36.206Z,101374.91
2023-01-30T13:48:20.115Z,101376.81
2023-01-30T13:51:09.135Z,101386.47
2023-01-30T13:53:46.228Z,101403.22
2023-01-30T13:56:40.674Z,101395.38
2023-01-30T13:59:20.204Z,101412.03
2023-01-30T14:02:20.989Z,101433.03
2023-01-30T14:04:55.419Z,101420.78
2023-01-30T14:07:31.477Z,101441.81
2023-01-30T14:10:17.660Z,101441.81
2023-01-30T14:12:49.777Z,101458.50
2023-01-30T14:15:29.101Z,101451.63
2023-01-30T14:18:05.531Z,101464.84
2023-01-30T14:20:37.219Z,101477.09
2023-01-30T14:23:25.002Z,101478.16
2023-01-30T14:25:56.748Z,101479.09
2023-01-30T14:28:56.212Z,101477.09
2023-01-30T14:31:48.730Z,101485.59
2023-01-30T14:34:53.811Z,101489.06
2023-01-30T14:37:51.284Z,101511.75
2023-01-30T14:40:36.855Z,101517.97
2023-01-30T14:43:38.099Z,101515.53
2023-01-30T14:46:09.861Z,101559.41
2023-01-30T14:48:45.667Z,101545.00
2023-01-30T14:51:22.687Z,101558.63
2023-01-30T14:53:59.682Z,101559.34
2023-01-30T14:56:44.386Z,101554.03
2023-01-30T14:59:24.614Z,101569.69
2023-01-30T15:02:04.227Z,101573.50
2023-01-30T15:04:36.501Z,101584.34
2023-01-30T15:07:11.976Z,101591.91
2023-01-30T15:09:45.189Z,101589.91
2023-01-30T15:12:49.102Z,101589.75
2023-01-30T15:15:27.028Z,101580.91
2023-01-30T15:18:14.156Z,101597.50
2023-01-30T15:20:58.029Z,101598.50
2023-01-30T15:23:54.513Z,101598.44
2023-01-30T15:26:41.497Z,101611.56
2023-01-30T15:29:33.038Z,101615.91
2023-01-30T15:32:05.234Z,101638.56
2023-01-30T15:34:36.189Z,101636.13
2023-01-30T15:37:05.979Z,101645.88
2023-01-30T15:39:35.752Z,101648.59
2023-01-30T15:42:10.698Z,101654.78
2023-01-30T15:44:58.033Z,101639.19
2023-01-30T15:47:56.341Z,101654.91
2023-01-30T15:50:26.323Z,101677.44
2023-01-30T15:52:57.617Z,101681.88
2023-01-30T15:55:29.937Z,101694.88
2023-01-30T15:58:04.102Z,101692.16
2023-01-30T16:00:39.269Z,101695.69
2023-01-30T16:03:14.726Z,101698.38
2023-01-30T16:05:50.278Z,101700.22
2023-01-30T16:08:26.613Z,101699.38
2023-01-30T16:10:56.635Z,101713.28
2023-01-30T16:13:27.317Z,101712.19
2023-01-30T16:16:05.140Z,101731.59
2023-01-30T16:18:39.847Z,101743.59
2023-01-30T16:21:13.030Z,101739.16
2023-01-30T16:23:46.531Z,101749.53
2023-01-30T16:26:22.026Z,101757.19
2023-01-30T16:28:53.984Z,101764.16
2023-01-30T16:31:27.611Z,101771.91
2023-01-30T16:33:57.595Z,101765.47
2023-01-30T16:36:36.117Z,101774.22
2023-01-30T16:39:06.318Z,101787.13
2023-01-30T16:41:39.782Z,101787.81
2023-01-30T16:44:12.132Z,101799.91
2023-01-30T16:47:07.748Z,101798.19
2023-01-30T16:49:49.022Z,101801.44
2023-01-30T16:52:23.162Z,101814.31
2023-01-30T16:54:56.012Z,101825.69
2023-01-30T16:57:36.510Z,101829.91
2023-01-30T17:00:22.664Z,101841.91
2023-01-30T17:02:58.662Z,101850.44
2023-01-30T17:05:31.256Z,101855.56
2023-01-30T17:08:01.391Z,101851.94
2023-01-30T17:10:56.493Z,101852.13
2023-01-30T17:13:38.013Z,101848.63
2023-01-30T17:16:33.648Z,101854.75
2023-01-30T17:19:06.054Z,101840.78
2023-01-30T17:21:48.203Z,101859.97
2023-01-30T17:24:20.181Z,101865.22
2023-01-30T17:26:53.058Z,101862.72
2023-01-30T17:29:41.451Z,101872.34
2023-01-30T17:32:19.857Z,101869.84
2023-01-30T17:34:52.433Z,101884.72
2023-01-30T17:37:24.200Z,101893.50
2023-01-30T17:39:54.257Z,101893.56
2023-01-30T17:42:24.107Z,101907.66
2023-01-30T17:44:54.216Z,101914.63
2023-01-30T17:47:24.046Z,101918.03
2023-01-30T17:49:56.708Z,101918.03
2023-01-30T17:52:26.497Z,101919.66
2023-01-30T17:54:56.248Z,101914.31
2023-01-30T17:57:26.153Z,101927.38
2023-01-30T17:59:56.119Z,101930.91
2023-01-30T18:02:28.240Z,101921.34
2023-01-30T18:05:00.680Z,101929.91
2023-01-30T18:07:32.345Z,101935.13
2023-01-30T18:10:02.160Z,101936.97
2023-01-30T18:12:31.902Z,101947.50
2023-01-30T18:15:01.670Z,101945.81
2023-01-30T18:17:32.623Z,101939.56
2023-01-30T18:20:05.191Z,101948.31
2023-01-30T18:22:34.957Z,101963.91
2023-01-30T18:25:04.767Z,101956.03
2023-01-30T18:27:34.628Z,101958.66
2023-01-30T18:30:04.441Z,101950.81
2023-01-30T18:32:37.639Z,101935.13
2023-01-30T18:35:11.043Z,101953.34
2023-01-30T18:37:40.922Z,101960.19
2023-01-30T18:40:13.799Z,101971.53
2023-01-30T18:42:43.965Z,101977.59
2023-01-30T18:45:14.073Z,101962.81
2023-01-30T18:47:43.853Z,101963.50
2023-01-30T18:50:16.493Z,101973.16
2023-01-30T18:52:47.517Z,101977.59
2023-01-30T18:55:18.813Z,101981.94
2023-01-30T18:57:48.617Z,101984.31
2023-01-30T19:00:19.706Z,101988.84
2023-01-30T19:02:53.957Z,101998.59
2023-01-30T19:05:26.475Z,102011.78
2023-01-30T19:07:56.604Z,102019.75
2023-01-30T19:10:26.371Z,102018.34
2023-01-30T19:13:08.570Z,102019.44
2023-01-30T19:15:38.918Z,102020.53
2023-01-30T19:18:08.980Z,102027.50
2023-01-30T19:20:41.414Z,102029.41
2023-01-30T19:23:11.379Z,102025.19
2023-01-30T19:25:41.253Z,102024.38
2023-01-30T19:28:11.067Z,102025.50
2023-01-30T19:30:41.190Z,102026.41
2023-01-30T19:33:11.095Z,102022.88
2023-01-30T19:35:44.014Z,102021.16
2023-01-30T19:38:13.854Z,102018.44
2023-01-30T19:40:44.895Z,102026.28
2023-01-30T19:43:16.361Z,102039.16
2023-01-30T19:45:46.228Z,102058.31
2023-01-30T19:48:16.169Z,102028.38
2023-01-30T19:50:50.504Z,102046.09
2023-01-30T19:53:21.068Z,102041.38
2023-01-30T19:55:54.100Z,102038.31
2023-01-30T19:58:24.188Z,102042.53
2023-01-30T20:00:54.291Z,102047.47
2023-01-30T20:03:24.192Z,102052.59
2023-01-30T20:05:56.765Z,102054.31
2023-01-30T20:08:32.558Z,102052.47
2023-01-30T20:11:08.202Z,102038.31
2023-01-30T20:13:38.999Z,102046.72
2023-01-30T20:16:09.916Z,102044.72
2023-01-30T20:18:40.951Z,102050.41
2023-01-30T20:21:15.841Z,102045.81
2023-01-30T20:23:46.621Z,102060.59
2023-01-30T20:26:18.976Z,102070.22
2023-01-30T20:28:49.431Z,102063.06
2023-01-30T20:31:21.948Z,102065.69
2023-01-30T20:33:52.885Z,102075.25
2023-01-30T20:36:26.042Z,102084.88
2023-01-30T20:38:56.902Z,102084.81
2023-01-30T20:41:28.885Z,102073.53
2023-01-30T20:44:00.848Z,102083.78
2023-01-30T20:46:33.905Z,102081.84
2023-01-30T20:49:04.394Z,102085.25
2023-01-30T20:51:38.394Z,102082.56
2023-01-30T20:54:10.957Z,102071.84
2023-01-30T20:56:43.175Z,102065.53
2023-01-30T20:59:15.104Z,102069.03
2023-01-30T21:01:45.555Z,102068.13
2023-01-30T21:04:17.739Z,102069.94
2023-01-30T21:06:50.367Z,102066.44
2023-01-30T21:09:22.269Z,102072.78
2023-01-30T21:11:53.431Z,102067.66
2023-01-30T21:14:25.039Z,102070.25
2023-01-30T21:16:56.476Z,102063.25
2023-01-30T21:19:26.317Z,102060.41
2023-01-30T21:21:59.603Z,102061.41
2023-01-30T21:24:31.342Z,102054.25
2023-01-30T21:27:01.111Z,102056.09
2023-01-30T21:29:32.767Z,102055.06
2023-01-30T21:32:02.676Z,102059.41
2023-01-30T21:34:33.391Z,102054.25
2023-01-30T21:37:18.238Z,102063.94
2023-01-30T21:40:00.426Z,102060.41
2023-01-30T21:42:42.584Z,102062.09
2023-01-30T21:45:12.593Z,102062.91
2023-01-30T21:47:42.725Z,102059.41
2023-01-30T21:50:13.659Z,102054.94
2023-01-30T21:52:46.087Z,102056.78
2023-01-30T21:55:15.993Z,102055.88
2023-01-30T21:57:45.953Z,102057.56
2023-01-30T22:00:17.354Z,102047.34
2023-01-30T22:02:47.573Z,102040.41
2023-01-30T22:05:18.209Z,102044.75
2023-01-30T22:07:50.955Z,102043.03
2023-01-30T22:10:20.963Z,102047.34
2023-01-30T22:12:50.781Z,102055.06
2023-01-30T22:15:21.964Z,102040.97
2023-01-30T22:17:52.022Z,102043.59
2023-01-30T22:20:21.914Z,102047.22
2023-01-30T22:22:54.950Z,102036.91
2023-01-30T22:25:24.797Z,102051.75
2023-01-30T22:27:54.588Z,102050.94
2023-01-30T22:30:24.671Z,102050.16
2023-01-30T22:32:56.533Z,102057.81
2023-01-30T22:35:26.428Z,102062.09
2023-01-30T22:37:58.989Z,102052.59
2023-01-30T22:40:28.947Z,102056.88
2023-01-30T22:42:58.822Z,102060.31
2023-01-30T22:45:28.730Z,102049.84
2023-01-30T22:47:58.778Z,102054.16
2023-01-30T22:50:28.844Z,102052.34
2023-01-30T22:53:01.484Z,102063.47
2023-01-30T22:55:31.337Z,102065.19
2023-01-30T22:58:01.186Z,102060.66
2023-01-30T23:00:31.026Z,102050.22
2023-01-30T23:03:00.890Z,102051.81
2023-01-30T23:05:30.730Z,102057.84
2023-01-30T23:08:03.266Z,102057.84
2023-01-30T23:10:33.116Z,102054.91
2023-01-30T23:13:15.465Z,102058.41
2023-01-30T23:15:46.910Z,102052.28
2023-01-30T23:18:29.851Z,102065.25
2023-01-30T23:20:59.725Z,102064.25
2023-01-30T23:23:32.168Z,102059.72
2023-01-30T23:26:04.624Z,102058.69
2023-01-30T23:28:34.463Z,102063.00
2023-01-30T23:31:09.027Z,102071.75
2023-01-30T23:33:39.003Z,102070.84
2023-01-30T23:36:11.138Z,102065.63
2023-01-30T23:38:44.408Z,102065.63
2023-01-30T23:41:16.095Z,102063.00
2023-01-30T23:43:47.590Z,102057.66
2023-01-30T23:46:20.719Z,102054.03
2023-01-30T23:48:52.046Z,102056.56
2023-01-30T23:51:24.102Z,102046.09
2023-01-30T23:53:57.119Z,102042.47
2023-01-30T23:56:28.904Z,102052.03
2023-01-30T23:58:59.747Z,102060.63
